Time;durP1;ratioP1;P1;durP2;ratioP2;P2;SDS_P1;SDS_P2;PMS_P1;PMS_P2;Temp;Humidity;BMP_temperature;BMP_pressure;BME280_temperature;BME280_humidity;BME280_pressure;Samples;Min_cycle;Max_cycle;Signal;HPM_P1;HPM_P2
2023/07/23 00:01:34;;;;;;;6.90;3.97;;;14.30;99.90;;;;;;5033397;28;20080;-63
2023/07/23 00:04:00;;;;;;;7.00;3.83;;;14.50;99.90;;;;;;5032888;28;20524;-63
2023/07/23 00:06:25;;;;;;;5.72;3.42;;;14.30;99.90;;;;;;5033330;28;20248;-63
2023/07/23 00:08:51;;;;;;;8.13;4.10;;;14.30;99.90;;;;;;5033234;28;20041;-63
2023/07/23 00:11:16;;;;;;;7.35;3.70;;;14.30;99.90;;;;;;5032891;28;20037;-63
2023/07/23 00:13:42;;;;;;;7.07;3.88;;;14.40;99.90;;;;;;5033216;28;20033;-63
2023/07/23 00:16:08;;;;;;;7.32;3.38;;;14.70;99.90;;;;;;5033188;28;20167;-63
2023/07/23 00:18:34;;;;;;;6.88;3.65;;;14.30;99.90;;;;;;5033149;28;20044;-63
2023/07/23 00:20:59;;;;;;;8.80;4.07;;;14.30;99.90;;;;;;5033042;28;20611;-64
2023/07/23 00:23:25;;;;;;;5.78;3.40;;;14.30;99.90;;;;;;5032469;28;20415;-63
2023/07/23 00:25:50;;;;;;;6.75;3.92;;;14.20;99.90;;;;;;5032788;28;20052;-63
2023/07/23 00:28:16;;;;;;;7.55;4.10;;;14.20;99.90;;;;;;5031484;28;20168;-63
2023/07/23 00:30:41;;;;;;;6.10;3.53;;;14.20;99.90;;;;;;5031430;28;20049;-63
2023/07/23 00:33:07;;;;;;;6.70;4.35;;;14.20;99.90;;;;;;5032987;28;20029;-63
2023/07/23 00:35:32;;;;;;;7.97;3.85;;;14.20;99.90;;;;;;5032960;28;20099;-63
2023/07/23 00:37:58;;;;;;;6.40;4.10;;;14.20;99.90;;;;;;5032914;28;20036;-63
2023/07/23 00:40:24;;;;;;;7.57;4.50;;;14.20;99.90;;;;;;5032919;28;20061;-63
2023/07/23 00:42:49;;;;;;;6.25;3.67;;;14.20;99.90;;;;;;5031362;28;20044;-63
2023/07/23 00:45:15;;;;;;;6.88;3.95;;;14.50;99.90;;;;;;5032892;28;20029;-63
2023/07/23 00:47:42;;;;;;;7.82;4.13;;;14.20;99.90;;;;;;5032920;28;20037;-63
2023/07/23 00:50:09;;;;;;;5.30;3.72;;;14.20;99.90;;;;;;5032764;28;20052;-63
2023/07/23 00:52:36;;;;;;;6.93;4.22;;;14.20;99.90;;;;;;5032835;28;20037;-63
2023/07/23 00:55:02;;;;;;;7.43;3.70;;;14.10;99.90;;;;;;5032863;28;20476;-63
2023/07/23 00:57:28;;;;;;;7.22;3.55;;;14.20;99.90;;;;;;5032728;28;20072;-64
2023/07/23 00:59:56;;;;;;;8.10;4.20;;;14.20;99.90;;;;;;5031326;28;20080;-63
2023/07/23 01:02:23;;;;;;;5.75;3.95;;;14.10;99.90;;;;;;5032542;28;20060;-63
2023/07/23 01:04:48;;;;;;;5.32;3.78;;;14.20;99.90;;;;;;5032724;28;20382;-63
2023/07/23 01:07:14;;;;;;;9.30;4.35;;;14.10;99.90;;;;;;5032698;28;20136;-63
2023/07/23 01:09:40;;;;;;;6.75;3.95;;;14.10;99.90;;;;;;5032667;28;20045;-63
2023/07/23 01:12:07;;;;;;;9.52;4.22;;;14.10;99.90;;;;;;5032279;28;20047;-63
2023/07/23 01:14:32;;;;;;;8.32;4.28;;;14.10;99.90;;;;;;5032626;28;20056;-63
2023/07/23 01:16:59;;;;;;;6.95;3.90;;;14.80;99.90;;;;;;5032644;28;20396;-63
2023/07/23 01:19:26;;;;;;;7.90;4.13;;;14.10;99.90;;;;;;5032543;28;20448;-63
2023/07/23 01:22:05;;;;;;;7.97;4.60;;;14.00;99.90;;;;;;5032554;28;20041;-63
2023/07/23 01:24:31;;;;;;;9.95;4.32;;;14.20;99.90;;;;;;5032532;28;20409;-63
2023/07/23 01:26:57;;;;;;;7.75;4.47;;;14.00;99.90;;;;;;5032503;28;20045;-63
2023/07/23 01:29:22;;;;;;;6.63;3.92;;;14.20;99.90;;;;;;5032480;28;20092;-63
2023/07/23 01:31:48;;;;;;;6.32;3.80;;;14.20;99.90;;;;;;5032550;28;20584;-63
2023/07/23 01:34:14;;;;;;;9.20;4.72;;;14.20;99.90;;;;;;5034921;28;20112;-63
2023/07/23 01:36:40;;;;;;;7.45;4.63;;;14.20;99.90;;;;;;5036004;28;20484;-64
2023/07/23 01:39:06;;;;;;;5.70;3.47;;;14.20;99.90;;;;;;5036044;28;20037;-63
2023/07/23 01:41:32;;;;;;;6.18;4.13;;;14.20;99.90;;;;;;5035956;28;20474;-63
2023/07/23 01:43:59;;;;;;;6.53;3.92;;;14.30;99.90;;;;;;5035910;28;20051;-63
2023/07/23 01:46:25;;;;;;;7.32;3.85;;;14.60;99.90;;;;;;5034266;28;20099;-63
2023/07/23 01:48:50;;;;;;;6.32;4.15;;;14.20;99.90;;;;;;5034602;28;20124;-63
2023/07/23 01:51:16;;;;;;;5.97;3.97;;;15.00;99.90;;;;;;5035690;28;20045;-63
2023/07/23 01:53:41;;;;;;;7.90;4.00;;;14.50;99.90;;;;;;5034211;28;20481;-63
2023/07/23 01:56:07;;;;;;;6.72;3.45;;;14.20;99.90;;;;;;5035723;28;20036;-63
2023/07/23 01:58:32;;;;;;;5.90;3.75;;;14.90;99.90;;;;;;5035589;28;20048;-63
2023/07/23 02:01:00;;;;;;;4.50;3.30;;;14.50;99.90;;;;;;5035228;28;20505;-63
2023/07/23 02:03:26;;;;;;;6.88;4.18;;;14.20;99.90;;;;;;5035298;28;20057;-63
2023/07/23 02:06:00;;;;;;;4.70;3.05;;;14.10;99.90;;;;;;5035215;28;20056;-63
2023/07/23 02:08:26;;;;;;;6.32;3.78;;;14.20;99.90;;;;;;5035265;28;20041;-63
2023/07/23 02:10:59;;;;;;;7.15;3.20;;;14.20;99.90;;;;;;5035452;28;20091;-63
2023/07/23 02:13:24;;;;;;;5.65;3.60;;;14.00;99.90;;;;;;5034197;28;20029;-64
2023/07/23 02:15:50;;;;;;;7.80;3.80;;;14.20;99.90;;;;;;5035365;28;20079;-63
2023/07/23 02:18:15;;;;;;;6.65;3.45;;;14.80;99.90;;;;;;5035306;28;20055;-63
2023/07/23 02:20:42;;;;;;;7.65;3.75;;;14.20;99.90;;;;;;5034969;28;20037;-63
2023/07/23 02:23:07;;;;;;;6.20;3.88;;;14.20;99.90;;;;;;5035179;28;20053;-63
2023/07/23 02:25:39;;;;;;;5.63;3.35;;;14.10;99.90;;;;;;5035179;28;20037;-63
2023/07/23 02:28:05;;;;;;;8.00;3.42;;;14.70;99.90;;;;;;5035157;28;20534;-63
2023/07/23 02:30:31;;;;;;;9.35;3.95;;;15.20;99.90;;;;;;5034664;28;20046;-63
2023/07/23 02:32:56;;;;;;;5.68;3.60;;;14.20;99.90;;;;;;5035035;28;20116;-63
2023/07/23 02:35:22;;;;;;;5.13;3.60;;;14.10;99.90;;;;;;5034952;28;20124;-63
2023/07/23 02:37:47;;;;;;;8.75;4.20;;;14.20;99.90;;;;;;5034648;28;20047;-63
2023/07/23 02:40:13;;;;;;;7.35;4.03;;;14.20;99.90;;;;;;5034933;28;20034;-63
2023/07/23 02:42:39;;;;;;;7.90;3.50;;;14.20;99.90;;;;;;5034779;28;20044;-63
2023/07/23 02:45:05;;;;;;;5.47;3.58;;;13.90;99.90;;;;;;5034124;28;20033;-63
2023/07/23 02:47:31;;;;;;;7.40;3.97;;;14.20;99.90;;;;;;5034729;28;20120;-63
2023/07/23 02:49:57;;;;;;;6.68;4.25;;;14.20;99.90;;;;;;5034685;28;20116;-63
2023/07/23 02:52:23;;;;;;;7.97;4.47;;;14.70;99.90;;;;;;5034581;28;20038;-63
2023/07/23 02:54:49;;;;;;;5.85;4.10;;;14.80;99.90;;;;;;5034667;28;20048;-63
2023/07/23 02:57:15;;;;;;;8.68;4.45;;;14.20;99.90;;;;;;5034629;28;20385;-65
2023/07/23 02:59:40;;;;;;;8.38;5.25;;;14.20;99.90;;;;;;5034487;28;20087;-63
2023/07/23 03:02:06;;;;;;;8.30;4.55;;;14.20;99.90;;;;;;5034472;28;20057;-63
2023/07/23 03:04:31;;;;;;;9.48;4.63;;;14.20;99.90;;;;;;5033873;28;20057;-63
2023/07/23 03:06:57;;;;;;;9.43;4.10;;;14.30;99.90;;;;;;5034031;28;20037;-63
2023/07/23 03:09:23;;;;;;;7.45;4.95;;;14.10;99.90;;;;;;5034295;28;20046;-63
2023/07/23 03:11:48;;;;;;;11.55;5.22;;;14.20;99.90;;;;;;5034263;28;20053;-63
2023/07/23 03:14:14;;;;;;;7.93;4.95;;;14.20;99.90;;;;;;5032725;28;20041;-63
2023/07/23 03:16:39;;;;;;;7.75;4.90;;;14.50;99.90;;;;;;5034172;28;20048;-63
2023/07/23 03:19:05;;;;;;;8.20;4.90;;;14.20;99.90;;;;;;5033898;28;20068;-63
2023/07/23 03:21:31;;;;;;;7.85;4.78;;;13.90;99.90;;;;;;5034047;28;20120;-63
2023/07/23 03:23:56;;;;;;;9.07;4.43;;;14.30;99.90;;;;;;5034027;28;20041;-63
2023/07/23 03:26:22;;;;;;;8.07;5.10;;;14.20;99.90;;;;;;5033685;28;20496;-65
2023/07/23 03:28:47;;;;;;;7.90;4.60;;;14.00;99.90;;;;;;5033937;28;20045;-63
2023/07/23 03:31:13;;;;;;;8.98;5.07;;;14.10;99.90;;;;;;5033861;28;20041;-63
2023/07/23 03:33:38;;;;;;;10.55;5.15;;;14.10;99.90;;;;;;5032542;28;20456;-63
2023/07/23 03:36:04;;;;;;;9.73;4.95;;;14.10;99.90;;;;;;5033809;28;20040;-63
2023/07/23 03:38:30;;;;;;;7.75;5.03;;;14.20;99.90;;;;;;5033434;28;20580;-63
2023/07/23 03:40:56;;;;;;;7.22;4.50;;;14.20;99.90;;;;;;5033741;28;20087;-63
2023/07/23 03:43:21;;;;;;;6.90;5.07;;;14.20;99.90;;;;;;5033638;28;20045;-63
2023/07/23 03:45:47;;;;;;;9.15;4.80;;;14.20;99.90;;;;;;5033413;28;20128;-63
2023/07/23 03:48:12;;;;;;;7.75;4.65;;;14.20;99.90;;;;;;5033693;28;20108;-63
2023/07/23 03:50:38;;;;;;;8.02;4.80;;;14.10;99.90;;;;;;5033510;28;20099;-63
2023/07/23 03:53:03;;;;;;;8.23;5.25;;;14.20;99.90;;;;;;5033175;28;20112;-63
2023/07/23 03:55:29;;;;;;;6.93;4.75;;;14.60;99.90;;;;;;5033431;28;20037;-63
2023/07/23 03:57:55;;;;;;;8.05;4.53;;;14.10;99.90;;;;;;5032256;28;20038;-63
2023/07/23 04:00:21;;;;;;;8.63;4.95;;;14.20;99.90;;;;;;5033431;28;20041;-63
2023/07/23 04:02:47;;;;;;;9.55;5.13;;;13.80;99.90;;;;;;5015316;28;20136;-63
2023/07/23 04:05:13;;;;;;;8.25;4.55;;;14.00;99.90;;;;;;5033455;28;20052;-63
2023/07/23 04:07:39;;;;;;;8.55;5.05;;;14.60;99.90;;;;;;5031972;28;20041;-63
2023/07/23 04:10:05;;;;;;;7.68;4.82;;;14.00;99.90;;;;;;5033300;28;20077;-63
2023/07/23 04:12:33;;;;;;;11.90;5.63;;;14.20;99.90;;;;;;5033187;28;20037;-63
2023/07/23 04:15:00;;;;;;;8.43;4.20;;;14.20;99.90;;;;;;5033213;28;20127;-63
2023/07/23 04:17:25;;;;;;;7.43;4.40;;;14.20;99.90;;;;;;5032906;28;20041;-63
2023/07/23 04:19:51;;;;;;;8.80;5.47;;;14.20;99.90;;;;;;5033143;28;20117;-63
2023/07/23 04:22:16;;;;;;;9.25;5.05;;;14.10;99.90;;;;;;5033090;28;20041;-63
2023/07/23 04:24:42;;;;;;;7.47;5.03;;;14.20;99.90;;;;;;5033036;28;20480;-63
2023/07/23 04:27:08;;;;;;;7.57;5.13;;;14.20;99.90;;;;;;5033091;28;20412;-63
2023/07/23 04:29:33;;;;;;;9.05;5.35;;;14.10;99.90;;;;;;5033068;28;20067;-63
2023/07/23 04:31:59;;;;;;;8.90;4.75;;;14.20;99.90;;;;;;5032944;28;20049;-63
2023/07/23 04:34:24;;;;;;;6.53;4.55;;;14.30;99.90;;;;;;5032675;28;20386;-63
2023/07/23 04:36:51;;;;;;;8.80;4.82;;;14.30;99.90;;;;;;5032945;28;20116;-63
2023/07/23 04:39:18;;;;;;;8.50;4.80;;;14.30;99.90;;;;;;5032672;28;20047;-63
2023/07/23 04:41:44;;;;;;;8.18;4.60;;;15.00;99.90;;;;;;5032699;28;20050;-63
2023/07/23 04:44:09;;;;;;;7.63;4.47;;;14.30;99.90;;;;;;5032859;28;20041;-63
2023/07/23 04:46:35;;;;;;;8.80;5.13;;;14.30;99.90;;;;;;5032845;28;20050;-63
2023/07/23 04:49:01;;;;;;;8.80;5.15;;;14.30;99.90;;;;;;5032861;28;20045;-63
2023/07/23 04:51:26;;;;;;;9.27;4.82;;;14.30;99.90;;;;;;5032742;28;20048;-63
2023/07/23 04:53:52;;;;;;;6.55;4.82;;;14.30;99.90;;;;;;5032804;28;20476;-63
2023/07/23 04:56:17;;;;;;;12.20;6.05;;;14.20;99.90;;;;;;5032583;28;20091;-63
2023/07/23 04:58:43;;;;;;;10.10;5.72;;;14.30;99.90;;;;;;5032743;28;20041;-63
2023/07/23 05:01:11;;;;;;;10.23;5.45;;;14.40;99.90;;;;;;5032816;28;20436;-63
2023/07/23 05:03:38;;;;;;;9.40;5.45;;;14.30;99.90;;;;;;5032391;28;20473;-63
2023/07/23 05:06:05;;;;;;;8.15;5.28;;;14.40;99.90;;;;;;5031465;28;20049;-63
2023/07/23 05:08:30;;;;;;;7.53;5.05;;;14.40;99.90;;;;;;5033820;28;20048;-63
2023/07/23 05:11:04;;;;;;;8.65;5.25;;;14.40;99.90;;;;;;5036520;28;20054;-63
2023/07/23 05:13:30;;;;;;;8.13;4.65;;;14.30;99.90;;;;;;5036203;28;20037;-63
2023/07/23 05:16:00;;;;;;;9.45;5.70;;;14.30;99.90;;;;;;5036492;28;20044;-63
2023/07/23 05:18:26;;;;;;;9.60;5.50;;;14.40;99.90;;;;;;5036472;28;20450;-63
2023/07/23 05:20:52;;;;;;;9.35;5.22;;;14.40;99.90;;;;;;5034874;28;20076;-63
2023/07/23 05:23:22;;;;;;;9.15;5.35;;;14.40;99.90;;;;;;5036269;28;20114;-63
2023/07/23 05:25:48;;;;;;;9.35;5.47;;;14.40;99.90;;;;;;5036328;28;20481;-63
2023/07/23 05:28:14;;;;;;;8.68;5.43;;;14.50;99.90;;;;;;5036304;28;20084;-63
2023/07/23 05:30:40;;;;;;;8.18;5.25;;;14.50;99.90;;;;;;5036081;28;20052;-63
2023/07/23 05:33:06;;;;;;;9.50;5.70;;;14.50;99.90;;;;;;5034557;28;20095;-63
2023/07/23 05:35:32;;;;;;;8.93;5.35;;;14.40;99.90;;;;;;5034554;28;20091;-63
2023/07/23 05:37:57;;;;;;;8.45;5.30;;;14.40;99.90;;;;;;5036037;28;20037;-63
2023/07/23 05:40:23;;;;;;;10.98;5.75;;;14.50;99.90;;;;;;5035994;28;20534;-63
2023/07/23 05:42:49;;;;;;;10.60;5.72;;;14.50;99.90;;;;;;5036005;28;20068;-63
2023/07/23 05:45:14;;;;;;;8.00;5.55;;;14.30;99.90;;;;;;5035924;28;20079;-63
2023/07/23 05:47:40;;;;;;;8.82;5.45;;;14.50;99.90;;;;;;5035592;28;20493;-63
2023/07/23 05:50:06;;;;;;;8.25;5.30;;;14.60;99.90;;;;;;5035826;28;20029;-63
2023/07/23 05:52:31;;;;;;;9.43;5.80;;;14.60;99.90;;;;;;5035370;28;20116;-63
2023/07/23 05:54:57;;;;;;;10.57;6.32;;;14.60;99.90;;;;;;5035741;28;20116;-63
2023/07/23 05:57:23;;;;;;;10.25;5.15;;;14.60;99.90;;;;;;5035638;28;20131;-63
2023/07/23 05:59:49;;;;;;;8.27;5.82;;;14.60;99.90;;;;;;5035683;28;20044;-64
2023/07/23 06:02:14;;;;;;;8.48;5.55;;;14.80;99.90;;;;;;5035191;28;20461;-63
2023/07/23 06:04:41;;;;;;;13.20;5.57;;;15.30;99.90;;;;;;5035336;28;20115;-63
2023/07/23 06:07:07;;;;;;;7.57;5.32;;;14.70;99.90;;;;;;5035665;28;20857;-63
2023/07/23 06:09:33;;;;;;;10.98;6.45;;;15.40;99.90;;;;;;5035476;28;20374;-63
2023/07/23 06:11:58;;;;;;;10.77;5.32;;;14.90;99.90;;;;;;5035361;28;20047;-63
2023/07/23 06:14:24;;;;;;;11.73;5.80;;;14.90;99.90;;;;;;5035397;28;20042;-64
2023/07/23 06:16:49;;;;;;;10.27;5.82;;;15.30;99.90;;;;;;5035306;28;20038;-63
2023/07/23 06:19:15;;;;;;;10.68;6.57;;;14.90;99.90;;;;;;5034669;28;20545;-63
2023/07/23 06:21:41;;;;;;;10.60;5.75;;;14.70;99.90;;;;;;5034723;28;20124;-63
2023/07/23 06:24:06;;;;;;;10.02;5.40;;;15.00;99.90;;;;;;5033679;28;20505;-63
2023/07/23 06:26:32;;;;;;;9.25;5.22;;;15.30;99.90;;;;;;5033592;28;20046;-63
2023/07/23 06:28:57;;;;;;;9.98;5.97;;;15.00;99.90;;;;;;5033759;28;20045;-63
2023/07/23 06:31:23;;;;;;;8.35;5.63;;;15.10;99.90;;;;;;5034943;28;20045;-63
2023/07/23 06:33:49;;;;;;;6.90;5.28;;;15.10;99.90;;;;;;5034976;28;20049;-63
2023/07/23 06:36:14;;;;;;;11.13;5.68;;;15.00;99.90;;;;;;5035058;28;20524;-63
2023/07/23 06:38:40;;;;;;;7.05;5.28;;;15.10;99.90;;;;;;5034926;28;20041;-63
2023/07/23 06:41:06;;;;;;;10.95;5.90;;;15.10;99.90;;;;;;5034959;28;20052;-63
2023/07/23 06:43:32;;;;;;;10.93;5.72;;;15.20;99.90;;;;;;5034822;28;20053;-63
2023/07/23 06:45:57;;;;;;;8.02;5.30;;;15.20;99.90;;;;;;5033386;28;20038;-63
2023/07/23 06:48:28;;;;;;;9.35;5.53;;;15.30;99.90;;;;;;5034770;28;20091;-63
2023/07/23 06:50:53;;;;;;;8.30;5.13;;;15.40;99.90;;;;;;5034688;28;20408;-63
2023/07/23 06:53:19;;;;;;;9.20;5.32;;;15.70;99.90;;;;;;5034365;28;20116;-63
2023/07/23 06:56:19;;;;;;;9.30;5.75;;;16.00;99.90;;;;;;5034565;28;20037;-63
2023/07/23 06:58:46;;;;;;;7.95;5.78;;;15.50;99.90;;;;;;5001922;28;20045;-64
2023/07/23 07:01:11;;;;;;;12.05;5.93;;;15.40;99.90;;;;;;5034194;28;20095;-63
2023/07/23 07:03:37;;;;;;;10.63;5.75;;;15.30;99.90;;;;;;5032767;28;20058;-63
2023/07/23 07:06:03;;;;;;;10.48;6.10;;;15.70;99.90;;;;;;5034405;28;20051;-63
2023/07/23 07:08:29;;;;;;;9.00;5.38;;;15.40;99.90;;;;;;5034106;28;20433;-63
2023/07/23 07:10:59;;;;;;;10.75;5.70;;;15.60;99.90;;;;;;5034165;28;20121;-63
2023/07/23 07:13:26;;;;;;;10.45;5.88;;;15.20;99.90;;;;;;5034248;28;20405;-63
2023/07/23 07:15:51;;;;;;;8.05;5.32;;;15.70;99.90;;;;;;5034235;28;20389;-63
2023/07/23 07:18:17;;;;;;;10.68;5.45;;;15.60;99.90;;;;;;5034195;28;20113;-63
2023/07/23 07:20:42;;;;;;;13.07;6.22;;;16.00;99.90;;;;;;5033837;28;20413;-63
2023/07/23 07:23:08;;;;;;;8.18;5.70;;;15.90;99.90;;;;;;5032527;28;20045;-64
2023/07/23 07:25:35;;;;;;;8.45;5.40;;;15.40;99.90;;;;;;5034027;28;20041;-65
2023/07/23 07:28:01;;;;;;;13.73;5.90;;;16.10;99.90;;;;;;5034006;28;20041;-63
2023/07/23 07:30:26;;;;;;;7.63;5.47;;;15.80;99.90;;;;;;5033781;28;20079;-70
2023/07/23 07:32:52;;;;;;;10.13;6.07;;;15.80;99.90;;;;;;5033786;28;20030;-62
2023/07/23 07:35:19;;;;;;;10.30;5.82;;;15.50;99.90;;;;;;5033857;28;20060;-63
2023/07/23 07:37:46;;;;;;;9.70;6.25;;;15.90;99.90;;;;;;5033873;28;20132;-64
2023/07/23 07:40:13;;;;;;;8.38;5.57;;;16.20;99.90;;;;;;5033774;28;20041;-64
2023/07/23 07:42:40;;;;;;;10.75;5.47;;;15.70;99.90;;;;;;5034235;28;20603;-62
2023/07/23 07:45:06;;;;;;;13.60;6.35;;;15.80;99.90;;;;;;5032153;28;20049;-66
2023/07/23 07:47:31;;;;;;;10.85;6.00;;;15.70;99.90;;;;;;5033612;28;20542;-62
2023/07/23 07:49:57;;;;;;;10.10;5.88;;;15.70;99.90;;;;;;5033441;28;20053;-61
2023/07/23 07:52:22;;;;;;;10.02;6.05;;;15.50;99.90;;;;;;5033118;28;20465;-61
2023/07/23 07:54:48;;;;;;;11.35;5.70;;;16.20;99.90;;;;;;5033573;28;20037;-61
2023/07/23 07:57:14;;;;;;;9.85;6.03;;;15.70;99.90;;;;;;5033478;28;20061;-64
2023/07/23 07:59:40;;;;;;;10.52;5.82;;;15.60;99.90;;;;;;5033454;28;20033;-61
2023/07/23 08:02:06;;;;;;;11.05;6.45;;;15.70;99.90;;;;;;5032211;28;20041;-61
2023/07/23 08:04:32;;;;;;;10.30;5.78;;;15.60;99.90;;;;;;5033010;28;20057;-62
2023/07/23 08:06:59;;;;;;;11.60;5.82;;;15.60;99.90;;;;;;5033369;28;20044;-61
2023/07/23 08:09:25;;;;;;;10.05;6.53;;;15.60;99.90;;;;;;5032884;28;20045;-61
2023/07/23 08:11:54;;;;;;;10.80;6.15;;;15.60;99.90;;;;;;5033049;28;20133;-61
2023/07/23 08:14:20;;;;;;;13.05;6.45;;;15.60;99.90;;;;;;5033048;28;20038;-63
2023/07/23 08:16:48;;;;;;;8.95;5.45;;;15.60;99.90;;;;;;5033028;28;20045;-61
2023/07/23 08:19:14;;;;;;;12.20;6.10;;;15.60;99.90;;;;;;5033067;28;20041;-61
2023/07/23 08:21:40;;;;;;;9.65;5.70;;;15.60;99.90;;;;;;5032934;28;20041;-61
2023/07/23 08:24:06;;;;;;;8.75;5.55;;;15.60;99.90;;;;;;5032935;28;20044;-61
2023/07/23 08:26:35;;;;;;;9.50;5.80;;;15.60;99.90;;;;;;5032910;28;20049;-61
2023/07/23 08:29:05;;;;;;;9.45;6.20;;;15.70;99.90;;;;;;5032886;28;20048;-62
2023/07/23 08:31:33;;;;;;;11.60;5.75;;;15.60;99.90;;;;;;5032770;28;20042;-63
2023/07/23 08:34:02;;;;;;;9.38;5.38;;;15.70;99.90;;;;;;5032878;28;20036;-61
2023/07/23 08:36:29;;;;;;;10.32;5.38;;;15.60;99.90;;;;;;5032774;28;20029;-61
2023/07/23 08:38:55;;;;;;;9.43;5.88;;;15.70;99.90;;;;;;5032776;28;20489;-61
2023/07/23 08:41:52;;;;;;;9.02;5.35;;;15.70;99.90;;;;;;5032757;28;20068;-61
2023/07/23 08:44:24;;;;;;;8.88;5.22;;;15.70;99.90;;;;;;5035494;28;20037;-68
2023/07/23 08:46:59;;;;;;;10.52;5.45;;;15.70;99.90;;;;;;5018868;28;20037;-64
2023/07/23 08:49:25;;;;;;;8.98;5.43;;;15.90;99.90;;;;;;5036769;28;20042;-63
2023/07/23 08:51:51;;;;;;;9.23;5.28;;;15.80;99.90;;;;;;5036653;28;20044;-64
2023/07/23 08:54:19;;;;;;;8.85;4.78;;;15.80;99.90;;;;;;5036663;28;20091;-64
2023/07/23 08:56:45;;;;;;;7.80;4.78;;;15.80;99.90;;;;;;5035267;28;20053;-63
2023/07/23 08:59:11;;;;;;;8.18;4.90;;;15.80;99.90;;;;;;5036587;28;20136;-64
2023/07/23 09:01:39;;;;;;;7.50;4.68;;;15.80;99.90;;;;;;5018729;28;20041;-64
2023/07/23 09:04:08;;;;;;;9.60;4.90;;;15.80;99.90;;;;;;5036327;28;20065;-63
2023/07/23 09:06:34;;;;;;;7.60;4.53;;;15.80;99.90;;;;;;5036730;28;20041;-65
2023/07/23 09:09:01;;;;;;;6.78;4.35;;;15.70;99.90;;;;;;5036656;28;20105;-66
2023/07/23 09:11:28;;;;;;;7.47;4.53;;;15.60;99.90;;;;;;5036248;28;20049;-69
2023/07/23 09:14:01;;;;;;;9.13;5.07;;;15.70;99.90;;;;;;5018619;28;20048;-64
2023/07/23 09:16:27;;;;;;;8.60;4.70;;;15.60;99.90;;;;;;5018764;28;20534;-66
2023/07/23 09:18:53;;;;;;;7.25;4.35;;;15.70;99.90;;;;;;5018760;28;20579;-64
2023/07/23 09:21:26;;;;;;;7.82;4.32;;;15.40;99.90;;;;;;5036445;28;20095;-64
2023/07/23 09:23:53;;;;;;;8.77;4.70;;;15.70;99.90;;;;;;5036413;28;20037;-64
2023/07/23 09:26:26;;;;;;;6.55;4.45;;;15.70;99.90;;;;;;5036351;28;20129;-64
2023/07/23 09:28:53;;;;;;;6.97;4.18;;;15.70;99.90;;;;;;5036317;28;20524;-66
2023/07/23 09:31:26;;;;;;;8.25;4.40;;;15.70;99.90;;;;;;5036209;28;20532;-65
2023/07/23 09:33:53;;;;;;;6.63;4.13;;;15.50;99.90;;;;;;5034590;28;20120;-64
2023/07/23 09:36:21;;;;;;;9.02;4.32;;;16.20;99.90;;;;;;5035871;28;20116;-64
2023/07/23 09:38:54;;;;;;;7.32;4.53;;;16.50;99.90;;;;;;5035821;28;20060;-64
2023/07/23 09:41:20;;;;;;;7.20;4.70;;;16.00;99.90;;;;;;5036076;28;20037;-65
2023/07/23 09:43:46;;;;;;;8.25;4.43;;;16.10;99.90;;;;;;5036036;28;20095;-69
2023/07/23 09:46:12;;;;;;;6.75;4.38;;;16.10;99.90;;;;;;5034381;28;20489;-63
2023/07/23 09:48:45;;;;;;;7.10;4.18;;;16.10;99.90;;;;;;5035917;28;20041;-63
2023/07/23 09:51:12;;;;;;;8.43;3.90;;;16.10;99.90;;;;;;5035800;28;20084;-64
2023/07/23 09:53:47;;;;;;;5.45;3.67;;;16.10;99.90;;;;;;5036142;28;20499;-61
2023/07/23 09:56:18;;;;;;;6.95;4.18;;;16.00;99.90;;;;;;5035561;28;20076;-61
2023/07/23 09:58:50;;;;;;;4.80;3.40;;;16.00;99.90;;;;;;5035745;28;20056;-62
2023/07/23 10:01:17;;;;;;;7.63;4.03;;;16.00;99.90;;;;;;5035470;28;20364;-61
2023/07/23 10:03:44;;;;;;;5.43;3.22;;;15.90;99.90;;;;;;5035224;28;20064;-61
2023/07/23 10:06:12;;;;;;;7.40;4.15;;;16.00;99.90;;;;;;5035616;28;20103;-62
2023/07/23 10:08:44;;;;;;;7.78;3.97;;;15.90;99.90;;;;;;5035470;28;20073;-61
2023/07/23 10:11:13;;;;;;;6.35;3.55;;;15.90;99.90;;;;;;5034989;28;20056;-61
2023/07/23 10:13:41;;;;;;;7.45;3.70;;;16.00;99.90;;;;;;5034958;28;20124;-62
2023/07/23 10:16:15;;;;;;;6.97;3.60;;;16.00;99.90;;;;;;5035341;28;20393;-62
2023/07/23 10:18:42;;;;;;;5.25;3.47;;;16.00;99.90;;;;;;5035256;28;20095;-62
2023/07/23 10:21:09;;;;;;;5.93;3.58;;;16.00;99.90;;;;;;5033962;28;20477;-61
2023/07/23 10:23:38;;;;;;;6.63;3.47;;;16.00;99.90;;;;;;5035172;28;20048;-61
2023/07/23 10:26:23;;;;;;;6.30;3.42;;;16.10;99.90;;;;;;5035171;28;20063;-61
2023/07/23 10:28:57;;;;;;;6.40;3.30;;;16.00;99.90;;;;;;5033447;28;20041;-64
2023/07/23 10:31:29;;;;;;;6.70;3.85;;;16.00;99.90;;;;;;5034691;28;20122;-61
2023/07/23 10:33:55;;;;;;;5.82;3.47;;;16.10;99.90;;;;;;5034849;28;20039;-61
2023/07/23 10:36:22;;;;;;;5.47;3.40;;;16.10;99.90;;;;;;5034745;28;20473;-61
2023/07/23 10:39:14;;;;;;;6.20;3.05;;;16.10;99.90;;;;;;5034697;28;20424;-61
2023/07/23 10:41:51;;;;;;;4.07;2.78;;;16.10;99.90;;;;;;5026369;28;20135;-65
2023/07/23 10:44:29;;;;;;;6.15;3.28;;;16.10;99.90;;;;;;5034657;28;20102;-61
2023/07/23 10:46:58;;;;;;;5.22;3.28;;;16.10;99.90;;;;;;5034327;28;20120;-62
2023/07/23 10:49:27;;;;;;;5.97;3.00;;;16.10;99.90;;;;;;5033390;28;20168;-62
2023/07/23 10:51:53;;;;;;;4.50;3.38;;;16.60;99.90;;;;;;5034635;28;20424;-61
2023/07/23 10:54:20;;;;;;;6.65;3.78;;;16.10;99.90;;;;;;5034334;28;20041;-61
2023/07/23 10:56:48;;;;;;;6.45;3.58;;;16.20;99.90;;;;;;5034559;28;20370;-61
2023/07/23 10:59:16;;;;;;;6.05;3.13;;;16.90;99.90;;;;;;5034535;28;20095;-61
2023/07/23 11:01:43;;;;;;;4.65;3.15;;;16.20;99.90;;;;;;5034510;28;20562;-62
2023/07/23 11:04:14;;;;;;;5.80;3.67;;;16.20;99.90;;;;;;5034034;28;20065;-60
2023/07/23 11:06:56;;;;;;;;;;;16.30;99.90;;;;;;5034185;28;20128;-61
2023/07/23 11:09:35;;;;;;;6.35;3.10;;;16.30;99.90;;;;;;5032782;28;19930;-63
2023/07/23 11:12:06;;;;;;;7.43;3.95;;;16.20;99.90;;;;;;5032709;28;20049;-64
2023/07/23 11:14:34;;;;;;;4.93;3.33;;;16.30;99.90;;;;;;5034206;28;20392;-62
2023/07/23 11:17:02;;;;;;;8.98;3.90;;;16.90;99.90;;;;;;5033799;28;20040;-65
2023/07/23 11:19:29;;;;;;;6.63;3.63;;;16.30;99.90;;;;;;5034124;28;20543;-68
2023/07/23 11:21:56;;;;;;;5.40;3.65;;;16.30;99.90;;;;;;5032828;28;20521;-64
2023/07/23 11:24:23;;;;;;;8.30;4.35;;;16.30;99.90;;;;;;5032430;28;20063;-62
2023/07/23 11:26:50;;;;;;;6.13;4.00;;;16.30;99.90;;;;;;5033673;28;20084;-67
2023/07/23 11:29:17;;;;;;;5.68;3.97;;;16.30;99.90;;;;;;5032800;28;20041;-61
2023/07/23 11:31:44;;;;;;;6.82;4.28;;;16.90;99.90;;;;;;5032414;28;20077;-61
2023/07/23 11:34:12;;;;;;;6.53;3.92;;;16.30;99.90;;;;;;5033958;28;20037;-60
2023/07/23 11:36:38;;;;;;;8.30;3.83;;;16.30;99.90;;;;;;5033947;28;20034;-61
2023/07/23 11:39:05;;;;;;;7.20;4.05;;;16.60;99.90;;;;;;5033879;28;20041;-61
2023/07/23 11:41:37;;;;;;;6.35;3.90;;;16.30;99.90;;;;;;5032564;28;20080;-61
2023/07/23 11:44:06;;;;;;;6.95;4.18;;;16.30;99.90;;;;;;5032592;28;20049;-62
2023/07/23 11:46:33;;;;;;;6.57;4.10;;;16.40;99.90;;;;;;5033739;28;20471;-60
2023/07/23 11:49:00;;;;;;;5.60;3.72;;;16.40;99.90;;;;;;5033330;28;20503;-61
2023/07/23 11:51:28;;;;;;;7.82;4.00;;;16.50;99.90;;;;;;5033660;28;20041;-62
2023/07/23 11:54:00;;;;;;;6.57;4.10;;;16.50;99.90;;;;;;5033620;28;20033;-60
2023/07/23 11:56:26;;;;;;;7.93;4.20;;;16.50;99.90;;;;;;5033588;28;20041;-61
2023/07/23 11:58:51;;;;;;;5.20;3.63;;;16.50;99.90;;;;;;5033542;28;20041;-60
2023/07/23 12:01:17;;;;;;;6.90;3.67;;;16.40;99.90;;;;;;5033504;28;20396;-62
2023/07/23 12:03:45;;;;;;;6.18;4.22;;;16.40;99.90;;;;;;5033142;28;20057;-61
2023/07/23 12:06:15;;;;;;;6.20;3.72;;;16.50;99.90;;;;;;5032400;28;20053;-63
2023/07/23 12:08:46;;;;;;;5.95;3.67;;;16.50;99.90;;;;;;5033061;28;20045;-63
2023/07/23 12:11:14;;;;;;;8.27;4.18;;;16.50;99.90;;;;;;5033323;28;20041;-63
2023/07/23 12:13:49;;;;;;;7.00;4.03;;;16.40;99.90;;;;;;5032979;28;20045;-63
2023/07/23 12:16:32;;;;;;;6.93;3.78;;;16.50;99.90;;;;;;5031709;28;20048;-63
2023/07/23 12:19:06;;;;;;;6.35;3.70;;;16.40;99.90;;;;;;5032404;28;20068;-63
2023/07/23 12:21:40;;;;;;;5.95;3.55;;;16.50;99.90;;;;;;5033158;28;20049;-63
2023/07/23 12:24:19;;;;;;;6.50;3.88;;;16.60;99.90;;;;;;5033197;28;20060;-63
2023/07/23 12:26:47;;;;;;;6.50;3.50;;;16.60;99.90;;;;;;5033165;28;20120;-63
2023/07/23 12:29:13;;;;;;;5.32;3.53;;;16.60;99.90;;;;;;5032851;28;20041;-63
2023/07/23 12:31:43;;;;;;;5.85;3.53;;;16.60;99.90;;;;;;5032736;28;20087;-63
2023/07/23 12:34:13;;;;;;;6.40;3.83;;;16.70;99.90;;;;;;5031621;28;20041;-64
2023/07/23 12:36:39;;;;;;;7.55;3.53;;;16.80;99.90;;;;;;5032984;28;20269;-64
2023/07/23 12:39:06;;;;;;;5.50;2.97;;;;;;;;;;5033075;28;20116;-63
2023/07/23 12:41:32;;;;;;;4.97;3.15;;;17.20;99.90;;;;;;5031786;28;20055;-63
2023/07/23 12:43:57;;;;;;;5.32;3.17;;;17.30;99.90;;;;;;5033069;28;20115;-63
2023/07/23 12:46:23;;;;;;;5.65;2.90;;;17.30;99.90;;;;;;5032877;28;20047;-63